Time;durP1;ratioP1;P1;durP2;ratioP2;P2;SDS_P1;SDS_P2;PMS_P1;PMS_P2;Temp;Humidity;BMP_temperature;BMP_pressure;BME280_temperature;BME280_humidity;BME280_pressure;Samples;Min_cycle;Max_cycle;Signal;HPM_P1;HPM_P2
2023/08/11 00:00:32;;;;;;;6.20;5.40;;;;;;;18.63;100.00;100666.44;5012750;28;20057;-73
2023/08/11 00:02:58;;;;;;;5.93;5.07;;;;;;;18.55;100.00;100646.34;5012453;28;20026;-73
2023/08/11 00:05:23;;;;;;;6.28;5.10;;;;;;;18.68;100.00;100656.88;5012541;28;20515;-73
2023/08/11 00:07:52;;;;;;;7.80;5.50;;;;;;;18.70;100.00;100649.94;5012419;28;20092;-73
2023/08/11 00:10:20;;;;;;;8.45;5.53;;;;;;;18.42;100.00;100594.84;4993752;28;20417;-73
2023/08/11 00:12:47;;;;;;;9.02;5.50;;;;;;;18.55;100.00;100654.19;5012573;28;20049;-73
2023/08/11 00:15:13;;;;;;;7.25;5.63;;;;;;;18.61;100.00;100650.75;5012376;28;20042;-73
2023/08/11 00:17:41;;;;;;;6.57;5.20;;;;;;;18.51;100.00;100652.41;4992018;28;20034;-75
2023/08/11 00:20:08;;;;;;;9.45;5.40;;;;;;;18.35;100.00;100640.97;5011071;28;20034;-74
2023/08/11 00:22:34;;;;;;;7.35;5.50;;;;;;;18.18;100.00;100646.06;5012042;28;20461;-74
2023/08/11 00:24:59;;;;;;;8.35;7.07;;;;;;;17.69;100.00;100643.81;5012107;28;20085;-74
2023/08/11 00:27:25;;;;;;;7.25;6.55;;;;;;;17.35;100.00;100595.63;5012448;28;20026;-74
2023/08/11 00:29:51;;;;;;;7.75;6.57;;;;;;;17.51;100.00;100646.22;5012239;28;20097;-74
2023/08/11 00:32:16;;;;;;;7.82;7.03;;;;;;;17.50;100.00;100647.97;5012252;28;20052;-74
2023/08/11 00:34:42;;;;;;;7.82;7.03;;;;;;;17.32;100.00;100648.66;5011809;28;20113;-73
2023/08/11 00:37:07;;;;;;;9.00;6.82;;;;;;;17.28;100.00;100646.84;5012128;28;20018;-74
2023/08/11 00:39:33;;;;;;;12.15;6.70;;;;;;;17.28;100.00;100634.69;5011621;28;20034;-73
2023/08/11 00:41:59;;;;;;;8.50;6.68;;;;;;;17.41;100.00;100648.75;5011907;28;20034;-73
2023/08/11 00:44:24;;;;;;;9.18;7.07;;;;;;;17.37;100.00;100656.50;5012064;28;20026;-74
2023/08/11 00:46:50;;;;;;;8.23;7.13;;;;;;;17.29;100.00;100653.81;5011813;28;20034;-74
2023/08/11 00:49:16;;;;;;;11.20;8.52;;;;;;;16.90;100.00;100580.28;5011811;28;20466;-74
2023/08/11 00:51:42;;;;;;;8.10;7.30;;;;;;;17.39;100.00;100652.19;5011569;28;20030;-74
2023/08/11 00:54:10;;;;;;;7.68;6.70;;;;;;;17.46;100.00;100643.59;4993754;28;20545;-74
2023/08/11 00:56:36;;;;;;;8.07;6.65;;;;;;;17.01;100.00;100582.16;5011555;28;20033;-74
2023/08/11 00:59:02;;;;;;;8.13;6.25;;;;;;;17.43;100.00;100653.97;5011677;28;20030;-73
2023/08/11 01:01:27;;;;;;;8.75;6.57;;;;;;;17.36;100.00;100657.38;5011321;28;20069;-74
2023/08/11 01:03:53;;;;;;;7.20;6.07;;;;;;;17.08;100.00;100651.81;5011825;28;20064;-74
2023/08/11 01:06:18;;;;;;;6.65;5.82;;;;;;;17.10;100.00;100652.72;5011668;28;20049;-73
2023/08/11 01:08:56;;;;;;;7.45;5.70;;;;;;;17.19;100.00;100646.75;5011232;28;20026;-73
2023/08/11 01:11:36;;;;;;;5.93;5.22;;;;;;;17.20;100.00;100645.91;5011411;28;20507;-74
2023/08/11 01:14:16;;;;;;;7.32;5.88;;;;;;;17.18;100.00;100645.84;5011336;28;20105;-74
2023/08/11 01:16:45;;;;;;;8.18;5.28;;;;;;;17.16;100.00;100657.13;5011130;28;20489;-74
2023/08/11 01:19:18;;;;;;;7.23;5.10;;;;;;;17.09;100.00;100659.66;5011013;28;20022;-74
2023/08/11 01:21:47;;;;;;;6.78;5.25;;;;;;;17.05;100.00;100657.00;5011106;28;20456;-74
2023/08/11 01:24:12;;;;;;;9.07;5.45;;;;;;;16.89;100.00;100659.34;5011163;28;20038;-74
2023/08/11 01:26:38;;;;;;;11.68;5.70;;;;;;;16.92;100.00;100653.34;5011126;28;20168;-74
2023/08/11 01:29:03;;;;;;;9.10;6.10;;;;;;;16.91;100.00;100655.06;5011345;28;20052;-74
2023/08/11 01:31:29;;;;;;;9.65;5.97;;;;;;;16.92;100.00;100655.94;4992850;28;20057;-74
2023/08/11 01:33:54;;;;;;;9.15;5.65;;;;;;;16.60;100.00;100593.78;5011068;28;20034;-74
2023/08/11 01:36:19;;;;;;;7.18;5.63;;;;;;;16.88;100.00;100649.75;5011265;28;20131;-73
2023/08/11 01:38:45;;;;;;;6.43;5.43;;;;;;;16.82;100.00;100652.28;5011080;28;20037;-74
2023/08/11 01:41:11;;;;;;;6.38;5.38;;;;;;;16.90;100.00;100645.47;5029159;28;20095;-74
2023/08/11 01:43:38;;;;;;;8.80;4.88;;;;;;;16.93;100.00;100647.28;5030853;28;20021;-74
2023/08/11 01:46:03;;;;;;;6.40;5.30;;;;;;;16.84;100.00;100649.72;5030572;28;20409;-74
2023/08/11 01:48:31;;;;;;;8.70;5.18;;;;;;;16.84;100.00;100647.97;5030717;28;20036;-74
2023/08/11 01:50:56;;;;;;;7.10;4.85;;;;;;;16.89;100.00;100643.69;5030386;28;20048;-74
2023/08/11 01:53:22;;;;;;;6.28;4.68;;;;;;;16.84;100.00;100634.09;5030406;28;20025;-73
2023/08/11 01:55:49;;;;;;;9.30;4.90;;;;;;;16.80;100.00;100651.41;5030344;28;20040;-73
2023/08/11 01:58:14;;;;;;;7.60;5.57;;;;;;;16.53;100.00;100644.91;5030382;28;20416;-74
2023/08/11 02:00:39;;;;;;;7.18;4.82;;;;;;;16.14;100.00;100627.81;5029980;28;20037;-74
2023/08/11 02:03:05;;;;;;;6.70;5.32;;;;;;;16.28;100.00;100654.94;5030361;28;20044;-73
2023/08/11 02:05:30;;;;;;;5.90;4.97;;;;;;;16.14;100.00;100656.47;5030255;28;20580;-73
2023/08/11 02:07:56;;;;;;;7.25;4.70;;;;;;;16.32;100.00;100662.00;5030384;28;20025;-74
2023/08/11 02:10:21;;;;;;;6.40;4.40;;;;;;;16.46;100.00;100658.69;5030236;28;20533;-74
2023/08/11 02:12:47;;;;;;;6.68;4.70;;;;;;;16.50;100.00;100653.56;5030267;28;20038;-74
2023/08/11 02:15:13;;;;;;;5.95;4.90;;;;;;;16.25;100.00;100599.31;5030161;28;20112;-74
2023/08/11 02:17:38;;;;;;;9.15;4.43;;;;;;;16.74;100.00;100656.53;5030229;28;20525;-74
2023/08/11 02:20:16;;;;;;;5.30;4.38;;;;;;;16.90;100.00;100666.31;5030309;28;20033;-74
2023/08/11 02:22:42;;;;;;;5.55;4.30;;;;;;;16.90;100.00;100653.28;5030068;28;20184;-74
2023/08/11 02:25:07;;;;;;;8.45;3.97;;;;;;;16.95;100.00;100659.47;5030128;28;20493;-74
2023/08/11 02:27:33;;;;;;;5.50;4.25;;;;;;;17.02;100.00;100657.81;5030509;28;20037;-73
2023/08/11 02:29:58;;;;;;;6.75;4.35;;;;;;;16.87;100.00;100653.22;5029859;28;20030;-73
2023/08/11 02:32:24;;;;;;;5.90;4.07;;;;;;;16.49;100.00;100641.38;5030433;28;20025;-73
2023/08/11 02:34:49;;;;;;;8.30;4.05;;;;;;;16.60;100.00;100653.72;5029876;28;20172;-74
2023/08/11 02:37:15;;;;;;;6.47;4.63;;;;;;;16.39;100.00;100609.97;5030125;28;20033;-74
2023/08/11 02:39:40;;;;;;;9.27;4.88;;;;;;;16.56;100.00;100642.38;5030239;28;20025;-73
2023/08/11 02:42:05;;;;;;;6.50;4.63;;;;;;;16.20;100.00;100596.66;5012221;28;20128;-73
2023/08/11 02:44:31;;;;;;;6.15;4.50;;;;;;;16.46;100.00;100640.47;5032463;28;20037;-74
2023/08/11 02:46:56;;;;;;;7.50;4.57;;;;;;;16.46;100.00;100650.88;5016242;28;20025;-74
2023/08/11 02:49:22;;;;;;;7.60;4.70;;;;;;;16.45;100.00;100655.22;5033836;28;20025;-74
2023/08/11 02:51:47;;;;;;;7.80;3.80;;;;;;;16.28;100.00;100643.66;5033927;28;20029;-73
2023/08/11 02:54:13;;;;;;;6.57;4.70;;;;;;;16.26;100.00;100625.41;5033521;28;20400;-73
2023/08/11 02:56:45;;;;;;;6.72;4.28;;;;;;;16.27;100.00;100658.41;5033879;28;20028;-73
2023/08/11 02:59:10;;;;;;;5.50;4.03;;;;;;;16.32;100.00;100661.09;5033694;28;20039;-74
2023/08/11 03:01:35;;;;;;;7.53;4.20;;;;;;;16.14;100.00;100659.94;5033452;28;20025;-73
2023/08/11 03:04:01;;;;;;;6.10;3.90;;;;;;;16.27;100.00;100657.53;5015693;28;20040;-73
2023/08/11 03:06:27;;;;;;;6.78;4.13;;;;;;;15.89;100.00;100593.53;5033402;28;20050;-73
2023/08/11 03:08:52;;;;;;;6.38;4.30;;;;;;;16.04;100.00;100636.31;4998449;28;20041;-73
2023/08/11 03:11:17;;;;;;;5.30;4.10;;;;;;;16.17;100.00;100659.09;5033523;28;20032;-74
2023/08/11 03:13:43;;;;;;;5.68;3.85;;;;;;;16.20;100.00;100661.78;5033282;28;20088;-73
2023/08/11 03:16:09;;;;;;;5.38;3.88;;;;;;;16.17;100.00;100664.31;5033567;28;20026;-74
2023/08/11 03:18:35;;;;;;;5.38;3.92;;;;;;;16.14;100.00;100643.44;5033405;28;20052;-74
2023/08/11 03:21:02;;;;;;;5.47;4.03;;;;;;;16.36;100.00;100655.06;5033128;28;20056;-74
2023/08/11 03:23:28;;;;;;;5.90;4.07;;;;;;;16.54;100.00;100664.06;5032983;28;20040;-73
2023/08/11 03:25:54;;;;;;;7.03;4.95;;;;;;;16.58;100.00;100655.44;5033311;28;20493;-74
2023/08/11 03:28:20;;;;;;;7.55;4.38;;;;;;;16.31;100.00;100610.72;5032871;28;20057;-73
2023/08/11 03:30:45;;;;;;;5.45;4.03;;;;;;;16.16;100.00;100582.72;5033116;28;20120;-73
2023/08/11 03:33:11;;;;;;;6.22;4.32;;;;;;;16.65;100.00;100668.56;5032993;28;20029;-74
2023/08/11 03:35:36;;;;;;;5.68;3.80;;;;;;;16.78;100.00;100655.72;5032975;28;20034;-73
2023/08/11 03:38:02;;;;;;;8.15;4.68;;;;;;;17.02;100.00;100665.63;5032809;28;20088;-73
2023/08/11 03:40:29;;;;;;;6.70;4.88;;;;;;;17.05;100.00;100668.31;4992178;28;20141;-73
2023/08/11 03:42:54;;;;;;;7.10;5.05;;;;;;;17.11;100.00;100673.59;5012832;28;20026;-73
2023/08/11 03:45:20;;;;;;;9.55;5.00;;;;;;;17.05;100.00;100670.91;5012744;28;20503;-73
2023/08/11 03:47:45;;;;;;;7.35;5.32;;;;;;;17.01;100.00;100671.72;4962025;28;20038;-73
2023/08/11 03:50:11;;;;;;;7.07;5.10;;;;;;;17.06;100.00;100682.19;5012787;28;20552;-73
2023/08/11 03:52:37;;;;;;;6.22;4.78;;;;;;;17.13;100.00;100673.63;5012952;28;20030;-73
2023/08/11 03:55:03;;;;;;;6.68;5.00;;;;;;;17.32;100.00;100681.69;5012549;28;20045;-73
2023/08/11 03:57:29;;;;;;;9.55;5.28;;;;;;;17.06;100.00;100635.25;5012464;28;20112;-73
2023/08/11 03:59:54;;;;;;;9.35;4.68;;;;;;;17.34;100.00;100679.97;5012484;28;20133;-73
2023/08/11 04:02:20;;;;;;;7.32;4.78;;;;;;;16.58;100.00;100622.41;5012703;28;20034;-73
2023/08/11 04:04:45;;;;;;;5.38;4.30;;;;;;;16.84;100.00;100686.22;5012433;28;20120;-73
2023/08/11 04:07:12;;;;;;;6.47;3.90;;;;;;;16.67;100.00;100692.03;5012585;28;20455;-73
2023/08/11 04:09:43;;;;;;;7.68;4.10;;;;;;;16.61;100.00;100681.53;5012454;28;20108;-73
2023/08/11 04:12:09;;;;;;;7.60;4.13;;;;;;;16.84;100.00;100694.06;5012434;28;20038;-73
2023/08/11 04:14:37;;;;;;;5.15;4.10;;;;;;;16.69;100.00;100645.16;5012594;28;20085;-73
2023/08/11 04:17:02;;;;;;;6.13;5.25;;;;;;;17.09;100.00;100704.00;5012744;28;20048;-73
2023/08/11 04:19:28;;;;;;;9.10;5.25;;;;;;;17.19;100.00;100715.44;5012396;28;20409;-73
2023/08/11 04:21:53;;;;;;;6.50;5.18;;;;;;;17.26;100.00;100709.44;5012176;28;20033;-73
2023/08/11 04:24:19;;;;;;;6.18;5.05;;;;;;;17.42;100.00;100696.59;5012484;28;20049;-73
2023/08/11 04:26:45;;;;;;;5.72;4.80;;;;;;;17.58;100.00;100705.50;5012198;28;20692;-73
2023/08/11 04:29:12;;;;;;;5.72;3.97;;;;;;;17.58;100.00;100688.09;5012504;28;20037;-74
2023/08/11 04:31:37;;;;;;;5.57;4.07;;;;;;;17.75;100.00;100711.78;5012293;28;20029;-73
2023/08/11 04:34:05;;;;;;;6.65;3.88;;;;;;;17.86;100.00;100711.91;5011964;28;20412;-73
2023/08/11 04:36:30;;;;;;;5.45;4.07;;;;;;;17.81;100.00;100713.59;5011824;28;20402;-73
2023/08/11 04:38:56;;;;;;;6.90;4.22;;;;;;;17.70;100.00;100723.91;5011976;28;20169;-73
2023/08/11 04:41:21;;;;;;;8.20;4.53;;;;;;;17.40;100.00;100664.41;5011618;28;20113;-73
2023/08/11 04:43:47;;;;;;;6.43;3.85;;;;;;;17.49;100.00;100708.88;5011910;28;20045;-73
2023/08/11 04:46:12;;;;;;;6.35;3.63;;;;;;;17.48;100.00;100711.47;5011565;28;20053;-73
2023/08/11 04:48:37;;;;;;;4.75;3.72;;;;;;;17.52;100.00;100711.53;5011874;28;20033;-74
2023/08/11 04:51:03;;;;;;;5.10;3.90;;;;;;;17.54;100.00;100703.72;5012032;28;20033;-73
2023/08/11 04:53:29;;;;;;;7.03;3.88;;;;;;;17.68;100.00;100723.00;5011487;28;20077;-73
2023/08/11 04:55:54;;;;;;;4.50;3.50;;;;;;;17.68;100.00;100730.84;5011859;28;20033;-73
2023/08/11 04:58:20;;;;;;;4.85;3.67;;;;;;;17.72;100.00;100729.16;5011541;28;20039;-73
2023/08/11 05:00:45;;;;;;;5.00;3.33;;;;;;;17.59;100.00;100715.06;5011465;28;20038;-73
2023/08/11 05:03:10;;;;;;;5.22;3.67;;;;;;;17.27;100.00;100669.47;5011351;28;20028;-73
2023/08/11 05:05:36;;;;;;;4.47;3.45;;;;;;;17.67;100.00;100729.13;5011047;28;20050;-73
2023/08/11 05:08:02;;;;;;;5.50;3.45;;;;;;;17.78;100.00;100721.38;5011202;28;20026;-73
2023/08/11 05:10:27;;;;;;;7.47;3.70;;;;;;;17.84;100.00;100726.69;5011071;28;20227;-73
2023/08/11 05:12:53;;;;;;;5.45;3.85;;;;;;;17.48;100.00;100654.03;5011451;28;20491;-73
2023/08/11 05:15:18;;;;;;;4.85;3.63;;;;;;;17.96;100.00;100720.75;5011268;28;20033;-73
2023/08/11 05:17:44;;;;;;;6.30;3.92;;;;;;;17.96;100.00;100710.31;5011328;28;20029;-73
2023/08/11 05:20:11;;;;;;;7.20;3.85;;;;;;;18.16;100.00;100726.19;5011543;28;20041;-73
2023/08/11 05:22:37;;;;;;;4.90;3.70;;;;;;;18.20;100.00;100703.56;5010970;28;20413;-73
2023/08/11 05:25:07;;;;;;;8.10;4.30;;;;;;;18.41;100.00;100723.81;5011303;28;20026;-73
2023/08/11 05:27:32;;;;;;;6.65;3.58;;;;;;;17.80;100.00;100625.66;4960460;28;20505;-73
2023/08/11 05:29:58;;;;;;;7.28;3.60;;;;;;;18.51;100.00;100730.84;5011233;28;20084;-73
2023/08/11 05:32:24;;;;;;;5.20;3.72;;;;;;;18.60;100.00;100735.28;5011117;28;20025;-73
2023/08/11 05:34:50;;;;;;;4.95;3.30;;;;;;;18.68;100.00;100745.78;4976403;28;20045;-73
2023/08/11 05:37:16;;;;;;;6.05;3.30;;;;;;;18.58;100.00;100727.44;5010916;28;20033;-73
2023/08/11 05:39:42;;;;;;;5.55;3.80;;;;;;;18.68;100.00;100745.78;5010538;28;20045;-73
2023/08/11 05:42:08;;;;;;;5.97;3.50;;;;;;;18.75;100.00;100752.84;5010690;28;20026;-73
2023/08/11 05:44:34;;;;;;;5.15;3.67;;;;;;;18.72;100.00;100734.50;5011147;28;20034;-73
2023/08/11 05:46:59;;;;;;;5.60;3.15;;;;;;;18.92;100.00;100753.00;5010720;28;20029;-73
2023/08/11 05:49:25;;;;;;;4.22;3.05;;;;;;;19.10;100.00;100760.09;5010824;28;20029;-73
2023/08/11 05:51:50;;;;;;;5.53;2.90;;;;;;;19.28;100.00;100747.97;5010682;28;20410;-73
2023/08/11 05:54:15;;;;;;;4.20;2.95;;;;;;;19.50;100.00;100739.38;5010582;28;20552;-73
2023/08/11 05:56:41;;;;;;;4.30;2.78;;;;;;;19.46;100.00;100732.34;5010998;28;20489;-73
2023/08/11 05:59:07;;;;;;;3.83;2.75;;;;;;;19.58;100.00;100735.91;5010620;28;20052;-73
2023/08/11 06:01:32;;;;;;;5.45;3.08;;;;;;;19.48;100.00;100756.81;5010743;28;20536;-73
2023/08/11 06:03:57;;;;;;;4.30;3.15;;;;;;;19.54;99.13;100743.75;5010903;28;20026;-73
2023/08/11 06:06:23;;;;;;;5.78;2.78;;;;;;;19.66;100.00;100747.28;4992968;28;20065;-73
2023/08/11 06:08:48;;;;;;;3.63;2.75;;;;;;;19.72;100.00;100747.31;5010318;28;20044;-73
2023/08/11 06:11:14;;;;;;;7.20;3.58;;;;;;;19.79;100.00;100742.97;5010756;28;20025;-73
2023/08/11 06:13:40;;;;;;;5.55;2.95;;;;;;;19.91;99.48;100750.91;5010688;28;20417;-73
2023/08/11 06:16:08;;;;;;;4.75;3.10;;;;;;;20.00;97.68;100743.06;5010504;28;20038;-73
2023/08/11 06:18:33;;;;;;;4.13;2.92;;;;;;;20.16;97.63;100746.59;4994307;28;20030;-73
2023/08/11 06:21:00;;;;;;;4.38;2.97;;;;;;;20.32;98.72;100746.63;5014487;28;20083;-73
2023/08/11 06:23:26;;;;;;;4.60;3.30;;;;;;;20.53;95.60;100757.09;5014468;28;20029;-73
2023/08/11 06:25:52;;;;;;;5.25;2.80;;;;;;;20.55;94.86;100759.75;5014422;28;20045;-73
2023/08/11 06:28:17;;;;;;;4.80;2.65;;;;;;;20.60;91.66;100749.25;5014420;28;20029;-73
2023/08/11 06:30:45;;;;;;;3.65;2.55;;;;;;;20.92;89.50;100761.50;5014760;28;20036;-73
2023/08/11 06:33:10;;;;;;;4.07;2.50;;;;;;;21.09;88.16;100761.50;5014673;28;20026;-73
2023/08/11 06:35:36;;;;;;;4.28;2.70;;;;;;;21.17;88.80;100746.59;5014288;28;20511;-72
2023/08/11 06:38:01;;;;;;;5.70;2.60;;;;;;;21.39;88.71;100767.56;5014068;28;20034;-73
2023/08/11 06:40:27;;;;;;;3.42;2.60;;;;;;;21.48;87.88;100764.88;5014200;28;20089;-73
2023/08/11 06:42:52;;;;;;;4.60;2.40;;;;;;;21.68;85.28;100764.84;5014100;28;20029;-73
2023/08/11 06:45:17;;;;;;;5.25;2.78;;;;;;;21.67;86.38;100747.34;4996591;28;20038;-73
2023/08/11 06:47:43;;;;;;;4.47;2.40;;;;;;;21.64;82.04;100760.47;5014417;28;20034;-73
2023/08/11 06:50:09;;;;;;;5.05;2.60;;;;;;;21.63;83.33;100762.25;5013927;28;20113;-73
2023/08/11 06:52:34;;;;;;;4.40;2.92;;;;;;;21.65;87.12;100770.13;5013717;28;20026;-73
2023/08/11 06:55:00;;;;;;;3.83;2.65;;;;;;;21.74;85.05;100770.06;5014113;28;20582;-73
2023/08/11 06:57:25;;;;;;;3.10;2.58;;;;;;;21.78;84.98;100763.94;5014092;28;20404;-73
2023/08/11 06:59:51;;;;;;;6.80;2.72;;;;;;;21.79;83.04;100781.47;5014071;28;20057;-73
2023/08/11 07:02:16;;;;;;;3.58;2.30;;;;;;;21.75;84.83;100761.31;5013586;28;20500;-73
2023/08/11 07:04:42;;;;;;;6.13;2.50;;;;;;;21.85;86.96;100775.28;5014086;28;20030;-73
2023/08/11 07:07:08;;;;;;;3.78;2.60;;;;;;;21.87;84.55;100770.91;5013245;28;20493;-73
2023/08/11 07:09:34;;;;;;;3.40;2.60;;;;;;;22.06;82.93;100783.97;5013916;28;20508;-73
2023/08/11 07:11:59;;;;;;;2.95;2.20;;;;;;;22.43;79.27;100775.84;5013602;28;20074;-73
2023/08/11 07:14:25;;;;;;;3.42;2.70;;;;;;;22.50;83.12;100779.31;5013174;28;20089;-72
2023/08/11 07:16:50;;;;;;;2.58;2.20;;;;;;;22.17;81.00;100726.03;5013767;28;20390;-72
2023/08/11 07:19:18;;;;;;;3.13;2.35;;;;;;;22.36;79.78;100775.00;5013231;28;20120;-73
2023/08/11 07:21:43;;;;;;;4.00;2.50;;;;;;;22.25;77.09;100774.19;5013087;28;20033;-73
2023/08/11 07:24:10;;;;;;;4.93;2.78;;;;;;;21.93;77.68;100720.03;5013386;28;20036;-72
2023/08/11 07:26:36;;;;;;;5.25;2.35;;;;;;;22.43;77.19;100765.31;5013047;28;20018;-73
2023/08/11 07:29:01;;;;;;;2.70;2.00;;;;;;;22.70;78.24;100781.78;5013045;28;20040;-73
2023/08/11 07:31:26;;;;;;;5.03;2.70;;;;;;;22.91;75.79;100778.09;5013454;28;20121;-72
2023/08/11 07:33:52;;;;;;;3.50;2.30;;;;;;;22.90;76.14;100776.34;5013117;28;20547;-72
2023/08/11 07:36:17;;;;;;;4.60;2.70;;;;;;;22.91;75.49;100775.47;5012775;28;20102;-73
2023/08/11 07:38:43;;;;;;;2.92;2.25;;;;;;;22.99;80.27;100771.00;5013297;28;20026;-73
2023/08/11 07:41:08;;;;;;;5.28;2.40;;;;;;;23.03;73.27;100777.97;5012939;28;20117;-73
2023/08/11 07:43:34;;;;;;;3.63;2.20;;;;;;;22.91;73.08;100780.72;5013066;28;20026;-72
2023/08/11 07:45:59;;;;;;;4.95;2.60;;;;;;;22.84;77.68;100771.13;5012636;28;20037;-73
2023/08/11 07:48:24;;;;;;;2.42;2.10;;;;;;;22.99;74.03;100776.28;5012879;28;20029;-73
2023/08/11 07:50:50;;;;;;;5.18;2.20;;;;;;;23.12;78.34;100778.78;5012501;28;20026;-73
2023/08/11 07:53:15;;;;;;;4.70;2.60;;;;;;;23.12;77.37;100770.88;5013025;28;20478;-73
2023/08/11 07:55:41;;;;;;;3.17;2.30;;;;;;;23.18;73.86;100766.44;5012919;28;20041;-73
2023/08/11 07:58:07;;;;;;;3.28;2.30;;;;;;;23.28;75.04;100772.50;5012638;28;20033;-72
2023/08/11 08:00:32;;;;;;;4.15;2.40;;;;;;;23.31;73.13;100766.31;5012614;28;20041;-73
2023/08/11 08:02:58;;;;;;;4.70;2.70;;;;;;;23.52;78.17;100773.09;5012986;28;20473;-73
2023/08/11 08:05:23;;;;;;;3.15;2.58;;;;;;;23.64;75.47;100767.69;5012804;28;20077;-73
2023/08/11 08:07:49;;;;;;;6.80;2.55;;;;;;;23.53;73.85;100725.66;5012402;28;20026;-73
2023/08/11 08:10:15;;;;;;;3.00;2.30;;;;;;;23.85;77.20;100750.72;5012604;28;20026;-73
2023/08/11 08:12:45;;;;;;;3.63;2.40;;;;;;;24.03;73.91;100767.22;5012324;28;20367;-73
2023/08/11 08:15:11;;;;;;;2.42;2.20;;;;;;;24.07;71.71;100760.97;5012564;28;20045;-73
2023/08/11 08:17:38;;;;;;;4.30;2.72;;;;;;;24.13;70.01;100766.16;5012219;28;20036;-73
2023/08/11 08:20:08;;;;;;;3.45;2.30;;;;;;;24.30;68.59;100755.38;5012306;28;20432;-73
2023/08/11 08:22:33;;;;;;;2.75;2.00;;;;;;;24.14;67.03;100722.19;5012397;28;20385;-73
2023/08/11 08:24:59;;;;;;;4.88;2.05;;;;;;;24.51;65.13;100758.56;5012186;28;20041;-73
2023/08/11 08:27:24;;;;;;;7.65;2.30;;;;;;;24.60;67.11;100749.63;5012334;28;20036;-73
2023/08/11 08:29:54;;;;;;;4.78;2.20;;;;;;;24.55;66.73;100728.59;5012039;28;20037;-73
2023/08/11 08:32:19;;;;;;;;;;;;;;;24.74;68.33;100742.38;5012614;28;20026;-73
2023/08/11 08:34:48;;;;;;;2.92;2.20;;;;;;;24.87;64.21;100743.00;5012149;28;19923;-73
2023/08/11 08:37:16;;;;;;;;;;;;;;;24.95;64.21;100738.47;5012645;28;20489;-73
2023/08/11 08:39:43;;;;;;;5.13;2.33;;;;;;;25.24;63.45;100723.81;5012177;28;19920;-73
2023/08/11 08:42:11;;;;;;;4.38;2.00;;;;;;;25.48;61.27;100732.19;5011128;28;20115;-73
2023/08/11 08:44:37;;;;;;;3.10;1.73;;;;;;;25.50;61.41;100733.91;5012110;28;20026;-73
2023/08/11 08:47:05;;;;;;;2.58;1.90;;;;;;;25.51;62.74;100740.94;5011864;28;20026;-73
2023/08/11 08:49:31;;;;;;;3.63;1.95;;;;;;;25.49;59.79;100731.28;4961949;28;20038;-72
2023/08/11 08:51:57;;;;;;;10.07;2.30;;;;;;;25.43;60.21;100711.13;5011989;28;20037;-72
2023/08/11 08:54:23;;;;;;;2.60;1.80;;;;;;;25.71;60.92;100738.75;5011921;28;20413;-71
2023/08/11 08:56:52;;;;;;;3.50;1.85;;;;;;;25.60;56.75;100736.38;5011738;28;20038;-72
2023/08/11 08:59:17;;;;;;;5.47;2.00;;;;;;;25.59;58.70;100738.13;5012172;28;20057;-73
2023/08/11 09:01:43;;;;;;;5.53;2.17;;;;;;;25.45;60.48;100733.13;5011503;28;20038;-72
2023/08/11 09:04:09;;;;;;;3.20;1.75;;;;;;;25.31;62.04;100720.16;5011551;28;20034;-72
2023/08/11 09:06:35;;;;;;;4.03;2.00;;;;;;;25.26;60.53;100737.88;5011418;28;20184;-73
2023/08/11 09:09:02;;;;;;;3.35;1.70;;;;;;;25.14;58.48;100719.63;5011431;28;20032;-72
2023/08/11 09:11:27;;;;;;;3.63;1.90;;;;;;;25.47;59.87;100731.34;5011567;28;20041;-73
2023/08/11 09:13:52;;;;;;;7.18;2.05;;;;;;;25.65;58.72;100737.13;5011305;28;20051;-73
2023/08/11 09:16:23;;;;;;;4.70;1.88;;;;;;;25.95;59.14;100725.00;5011510;28;20033;-73
2023/08/11 09:18:49;;;;;;;4.30;1.65;;;;;;;25.80;53.53;100680.38;5011117;28;20040;-73
2023/08/11 09:21:14;;;;;;;26.85;12.00;;;;;;;26.08;54.37;100722.97;5011113;28;20033;-73
2023/08/11 09:23:42;;;;;;;3.33;1.73;;;;;;;26.03;57.82;100727.44;5011485;28;20026;-73
2023/08/11 09:26:09;;;;;;;20.42;10.15;;;;;;;25.82;52.91;100728.81;5011327;28;20040;-73
2023/08/11 09:28:34;;;;;;;4.82;1.77;;;;;;;25.75;56.60;100729.88;5011216;28;20108;-73
2023/08/11 09:30:59;;;;;;;2.42;1.70;;;;;;;25.62;56.91;100734.53;5011266;28;20589;-73
2023/08/11 09:33:25;;;;;;;2.35;1.73;;;;;;;25.83;58.44;100722.63;5010894;28;20022;-72
2023/08/11 09:35:53;;;;;;;3.70;1.67;;;;;;;26.07;53.98;100723.00;5010751;28;20033;-73
2023/08/11 09:38:19;;;;;;;3.28;1.80;;;;;;;26.35;52.97;100722.34;5010822;28;20485;-73
2023/08/11 09:40:46;;;;;;;2.28;1.58;;;;;;;26.62;54.54;100723.44;5010935;28;20057;-73
2023/08/11 09:43:11;;;;;;;3.13;1.90;;;;;;;26.57;54.88;100656.50;5010781;28;20037;-73
2023/08/11 09:45:37;;;;;;;2.80;1.50;;;;;;;27.10;52.13;100716.88;5010789;28;20018;-74
2023/08/11 09:48:03;;;;;;;2.25;1.48;;;;;;;27.23;54.16;100686.47;4976141;28;20141;-73
2023/08/11 09:50:33;;;;;;;4.35;1.95;;;;;;;27.52;51.30;100710.41;5010747;28;20033;-73
2023/08/11 09:53:00;;;;;;;2.60;1.77;;;;;;;27.36;47.37;100670.19;5010920;28;20026;-73
2023/08/11 09:55:28;;;;;;;4.15;1.92;;;;;;;27.28;50.70;100703.09;5011030;28;20026;-73
2023/08/11 09:57:56;;;;;;;2.30;1.60;;;;;;;27.52;49.74;100705.13;5010938;28;20037;-73
2023/08/11 10:00:23;;;;;;;3.17;1.70;;;;;;;27.78;52.21;100706.97;5010633;28;20501;-74
2023/08/11 10:03:09;;;;;;;2.63;1.67;;;;;;;27.70;49.46;100703.66;5010358;28;20030;-71
2023/08/11 10:05:39;;;;;;;3.38;1.60;;;;;;;27.07;50.94;100693.13;5010563;28;20057;-72
2023/08/11 10:08:09;;;;;;;2.40;1.80;;;;;;;26.76;50.31;100707.19;5010479;28;20451;-73
2023/08/11 10:10:37;;;;;;;2.70;1.67;;;;;;;26.62;50.28;100699.59;5010493;28;20022;-72
2023/08/11 10:13:14;;;;;;;5.45;1.75;;;;;;;26.53;49.48;100715.69;5010606;28;20026;-71
2023/08/11 10:15:39;;;;;;;2.40;1.73;;;;;;;26.36;51.93;100700.28;5010645;28;20061;-73
2023/08/11 10:18:06;;;;;;;4.47;1.70;;;;;;;26.05;50.76;100672.72;5010751;28;20108;-73
2023/08/11 10:20:32;;;;;;;4.50;1.50;;;;;;;26.28;52.72;100713.66;5010646;28;20037;-73
2023/08/11 10:22:58;;;;;;;2.63;1.80;;;;;;;26.22;52.31;100708.53;5010269;28;20030;-73
2023/08/11 10:25:25;;;;;;;2.08;1.60;;;;;;;26.26;54.01;100713.72;5010585;28;20477;-73
2023/08/11 10:27:51;;;;;;;3.70;1.55;;;;;;;26.22;54.11;100708.53;5010319;28;20018;-73
2023/08/11 10:30:17;;;;;;;4.68;1.90;;;;;;;26.35;53.49;100730.28;5010551;28;20571;-71
2023/08/11 10:32:43;;;;;;;7.35;2.00;;;;;;;26.28;52.44;100725.16;5010443;28;20074;-73
2023/08/11 10:35:19;;;;;;;4.25;1.80;;;;;;;26.27;53.66;100731.34;5010266;28;20050;-74
2023/08/11 10:37:56;;;;;;;2.17;1.67;;;;;;;26.08;52.59;100669.19;5009935;28;20033;-73
2023/08/11 10:40:21;;;;;;;2.50;1.83;;;;;;;26.32;52.18;100718.84;5010320;28;20026;-73
2023/08/11 10:42:50;;;;;;;4.38;1.65;;;;;;;26.29;52.01;100716.31;5010720;28;20056;-73
2023/08/11 10:45:18;;;;;;;3.28;1.83;;;;;;;26.30;51.87;100719.81;5010604;28;20153;-73
2023/08/11 10:47:51;;;;;;;4.20;1.83;;;;;;;26.43;50.82;100712.41;5010121;28;20109;-73
2023/08/11 10:50:18;;;;;;;2.53;1.63;;;;;;;26.90;53.67;100706.81;5010464;28;20030;-73
2023/08/11 10:52:46;;;;;;;2.28;1.70;;;;;;;27.37;50.10;100695.81;5009972;28;20464;-73
2023/08/11 10:55:13;;;;;;;3.25;1.90;;;;;;;27.82;48.97;100711.25;5010398;28;20041;-74
2023/08/11 10:57:39;;;;;;;3.38;1.90;;;;;;;27.99;44.57;100700.13;5010270;28;20026;-73
2023/08/11 11:00:05;;;;;;;3.60;1.80;;;;;;;28.31;48.84;100689.38;5009975;28;20034;-73
2023/08/11 11:02:33;;;;;;;2.58;1.73;;;;;;;28.47;44.22;100685.28;5009746;28;20037;-74
2023/08/11 11:04:58;;;;;;;3.38;1.70;;;;;;;28.68;50.55;100690.81;4960692;28;20046;-73
2023/08/11 11:07:24;;;;;;;4.63;1.50;;;;;;;28.96;41.44;100690.69;5013877;28;20060;-73
2023/08/11 11:09:50;;;;;;;2.38;1.70;;;;;;;29.08;43.45;100688.50;5013586;28;20504;-73
2023/08/11 11:12:17;;;;;;;3.45;1.52;;;;;;;29.04;41.93;100661.16;5013339;28;20033;-73
2023/08/11 11:14:43;;;;;;;1.73;1.52;;;;;;;29.32;44.28;100677.00;5013668;28;20034;-73
2023/08/11 11:17:08;;;;;;;3.80;1.65;;;;;;;29.23;39.36;100685.28;5013243;28;20500;-73